Time;durP1;ratioP1;P1;durP2;ratioP2;P2;SDS_P1;SDS_P2;PMS_P1;PMS_P2;Temp;Humidity;BMP_temperature;BMP_pressure;BME280_temperature;BME280_humidity;BME280_pressure;Samples;Min_cycle;Max_cycle;Signal;HPM_P1;HPM_P2
2022/10/06 00:01:10;;;;;;;5.63;1.40;;;;;;;14.09;100.00;102091.16;5286831;28;20052;-76
2022/10/06 00:03:42;;;;;;;8.00;1.98;;;;;;;13.92;100.00;102092.50;5288830;28;20074;-76
2022/10/06 00:06:15;;;;;;;6.45;1.60;;;;;;;13.95;100.00;102105.44;5287321;28;20036;-76
2022/10/06 00:08:46;;;;;;;10.88;1.73;;;;;;;13.94;100.00;102105.53;5285456;28;20036;-75
2022/10/06 00:11:18;;;;;;;5.20;1.88;;;;;;;13.96;100.00;102114.19;5271147;28;20057;-76
2022/10/06 00:13:49;;;;;;;6.78;1.50;;;;;;;13.91;100.00;102116.34;5287233;28;20186;-76
2022/10/06 00:16:21;;;;;;;8.68;1.50;;;;;;;13.92;100.00;102131.19;5291371;23;20131;-76
2022/10/06 00:18:52;;;;;;;6.03;1.48;;;;;;;13.90;100.00;102141.00;5294285;28;20031;-73
2022/10/06 00:21:23;;;;;;;6.82;1.52;;;;;;;13.85;100.00;102139.56;5299489;28;20095;-76
2022/10/06 00:23:55;;;;;;;6.93;1.50;;;;;;;13.83;100.00;102146.75;5300339;28;20036;-73
2022/10/06 00:26:26;;;;;;;10.88;1.38;;;;;;;13.83;100.00;102146.75;5288870;28;20104;-77
2022/10/06 00:28:57;;;;;;;6.10;1.67;;;;;;;13.82;100.00;102158.22;5287323;28;20031;-73
2022/10/06 00:31:28;;;;;;;6.32;1.52;;;;;;;13.81;100.00;102151.28;5285313;28;20035;-74
2022/10/06 00:34:00;;;;;;;8.05;1.48;;;;;;;13.80;100.00;102159.31;5288028;28;20026;-75
2022/10/06 00:36:31;;;;;;;6.78;1.63;;;;;;;13.76;100.00;102157.88;5284543;28;20481;-72
2022/10/06 00:39:02;;;;;;;5.38;1.65;;;;;;;13.75;100.00;102159.69;5284421;28;20384;-75
2022/10/06 00:41:34;;;;;;;10.77;1.38;;;;;;;13.75;100.00;102159.69;5289166;28;20768;-72
2022/10/06 00:44:05;;;;;;;11.00;2.13;;;;;;;13.73;100.00;102161.59;5284065;28;20397;-74
2022/10/06 00:46:44;;;;;;;7.28;1.63;;;;;;;13.72;100.00;102170.47;5283420;28;20040;-74
2022/10/06 00:49:19;;;;;;;7.47;1.98;;;;;;;13.74;100.00;102172.97;5287301;28;20055;-73
2022/10/06 00:51:56;;;;;;;7.55;1.88;;;;;;;13.70;100.00;102179.41;5290631;28;20028;-76
2022/10/06 00:54:29;;;;;;;5.97;1.50;;;;;;;13.63;100.00;102179.88;5284662;28;20016;-71
2022/10/06 00:57:02;;;;;;;6.82;1.20;;;;;;;13.66;100.00;102186.72;5287012;28;20039;-72
2022/10/06 00:59:34;;;;;;;10.23;1.65;;;;;;;13.64;100.00;102180.75;5290141;28;20465;-72
2022/10/06 01:02:14;;;;;;;4.85;1.55;;;;;;;13.63;100.00;102189.56;5284602;28;20040;-76
2022/10/06 01:04:50;;;;;;;11.20;2.25;;;;;;;13.61;100.00;102197.59;5282987;28;20055;-72
2022/10/06 01:07:24;;;;;;;14.15;2.08;;;;;;;13.54;100.00;102188.50;5292024;28;20021;-75
2022/10/06 01:09:56;;;;;;;8.43;1.60;;;;;;;13.54;100.00;102200.81;5287537;28;20460;-72
2022/10/06 01:12:29;;;;;;;11.77;1.60;;;;;;;13.53;100.00;102204.41;5288999;28;20052;-72
2022/10/06 01:15:01;;;;;;;9.23;1.90;;;;;;;13.50;100.00;102210.75;5284053;28;20066;-72
2022/10/06 01:17:54;;;;;;;7.13;1.70;;;;;;;13.72;100.00;102214.41;5286272;28;20497;-72
2022/10/06 01:20:25;;;;;;;8.47;1.57;;;;;;;13.44;100.00;102216.47;5286075;28;20059;-71
2022/10/06 01:23:04;;;;;;;8.77;1.77;;;;;;;13.50;100.00;102218.66;5283934;28;20024;-71
2022/10/06 01:25:36;;;;;;;6.32;1.70;;;;;;;13.38;100.00;102228.31;5285573;28;20535;-71
2022/10/06 01:28:09;;;;;;;10.60;1.95;;;;;;;13.39;100.00;102234.41;5285678;28;20112;-72
2022/10/06 01:30:51;;;;;;;4.18;1.70;;;;;;;13.47;100.00;102233.84;5280054;28;20516;-71
2022/10/06 01:33:22;;;;;;;5.07;1.52;;;;;;;13.35;100.00;102231.16;5291544;28;20035;-75
2022/10/06 01:35:54;;;;;;;6.90;1.67;;;;;;;13.38;100.00;102241.47;5292566;28;20521;-71
2022/10/06 01:38:26;;;;;;;6.32;1.50;;;;;;;13.34;100.00;102249.72;5283443;28;20038;-71
2022/10/06 01:40:57;;;;;;;7.50;1.77;;;;;;;13.33;100.00;102255.91;5284586;28;20512;-72
2022/10/06 01:43:28;;;;;;;11.70;2.08;;;;;;;13.29;100.00;102260.56;5283177;28;20020;-75
2022/10/06 01:46:00;;;;;;;8.77;1.95;;;;;;;13.30;100.00;102267.53;5286661;28;20052;-72
2022/10/06 01:48:34;;;;;;;10.93;1.67;;;;;;;13.32;100.00;102257.69;5287779;28;20036;-72
2022/10/06 01:51:08;;;;;;;5.88;1.90;;;;;;;13.26;100.00;102268.69;5284424;28;20032;-71
2022/10/06 01:53:39;;;;;;;;;;;;;;;13.78;100.00;102271.84;5288905;28;20028;-73
2022/10/06 01:56:10;;;;;;;8.13;1.90;;;;;;;13.26;100.00;102271.34;5285603;28;20369;-72
2022/10/06 01:58:42;;;;;;;9.25;2.22;;;;;;;13.23;100.00;102271.56;5283519;28;20099;-71
2022/10/06 02:01:13;;;;;;;9.63;2.22;;;;;;;13.19;100.00;102270.06;5279428;28;20013;-74
2022/10/06 02:03:45;;;;;;;10.30;1.92;;;;;;;13.18;100.00;102285.94;5285023;28;20032;-71
2022/10/06 02:06:16;;;;;;;7.97;2.03;;;;;;;13.17;100.00;102274.59;5286193;28;20035;-72
2022/10/06 02:08:47;;;;;;;7.68;1.73;;;;;;;13.17;100.00;102273.75;5288538;28;20092;-73
2022/10/06 02:11:19;;;;;;;8.77;1.70;;;;;;;13.15;100.00;102276.50;5287148;28;20077;-72
2022/10/06 02:13:50;;;;;;;9.95;2.70;;;;;;;13.11;100.00;102280.31;5288254;28;20400;-74
2022/10/06 02:16:22;;;;;;;10.60;2.47;;;;;;;13.08;100.00;102288.44;5287146;28;20133;-71
2022/10/06 02:18:53;;;;;;;11.88;2.10;;;;;;;13.05;100.00;102286.00;5285727;28;20067;-71
2022/10/06 02:21:24;;;;;;;9.15;2.10;;;;;;;13.06;100.00;102299.03;5288752;28;20535;-71
2022/10/06 02:23:56;;;;;;;11.00;2.33;;;;;;;13.01;100.00;102301.19;5280614;28;20095;-72
2022/10/06 02:26:27;;;;;;;12.30;2.78;;;;;;;12.99;100.00;102302.22;5283677;28;20503;-71
2022/10/06 02:28:58;;;;;;;12.40;2.40;;;;;;;12.96;100.00;102307.72;5289740;28;20483;-76
2022/10/06 02:31:30;;;;;;;8.13;1.83;;;;;;;12.94;100.00;102322.78;5285215;28;20370;-73
2022/10/06 02:34:01;;;;;;;11.40;2.78;;;;;;;12.89;100.00;102323.09;5291083;28;20024;-72
2022/10/06 02:36:33;;;;;;;8.25;2.17;;;;;;;12.87;100.00;102319.72;5286751;28;20036;-73
2022/10/06 02:39:04;;;;;;;9.05;2.28;;;;;;;12.82;100.00;102325.31;5290312;28;20420;-71
2022/10/06 02:41:35;;;;;;;11.68;2.30;;;;;;;12.80;100.00;102324.56;5289850;28;20024;-75
2022/10/06 02:44:06;;;;;;;8.57;1.92;;;;;;;12.78;100.00;102328.28;5284474;28;20028;-71
2022/10/06 02:46:38;;;;;;;7.22;1.70;;;;;;;12.78;100.00;102339.63;5287614;28;20036;-72
2022/10/06 02:49:09;;;;;;;11.18;2.08;;;;;;;12.77;100.00;102340.59;5282098;28;20036;-74
2022/10/06 02:51:40;;;;;;;11.88;2.40;;;;;;;12.77;100.00;102345.03;5288121;28;20089;-72
2022/10/06 02:54:12;;;;;;;7.88;1.65;;;;;;;12.74;100.00;102347.84;5287614;28;20457;-71
2022/10/06 02:56:43;;;;;;;10.32;2.17;;;;;;;12.76;100.00;102359.09;5284950;28;20032;-72
2022/10/06 02:59:14;;;;;;;10.60;2.00;;;;;;;12.66;100.00;102348.41;5288529;28;20025;-73
2022/10/06 03:01:46;;;;;;;11.35;2.70;;;;;;;12.67;100.00;102355.31;5285144;28;20584;-73
2022/10/06 03:04:17;;;;;;;7.43;2.10;;;;;;;12.61;100.00;102356.59;5284269;28;20082;-72
2022/10/06 03:06:48;;;;;;;10.98;1.98;;;;;;;12.62;100.00;102367.97;5276050;28;20077;-72
2022/10/06 03:09:19;;;;;;;8.32;2.03;;;;;;;12.61;100.00;102376.78;5287264;28;20111;-72
2022/10/06 03:11:51;;;;;;;11.50;2.17;;;;;;;12.57;100.00;102385.81;5282415;28;20030;-76
2022/10/06 03:14:22;;;;;;;13.88;2.67;;;;;;;12.52;100.00;102374.78;5285404;28;20041;-72
2022/10/06 03:16:55;;;;;;;12.60;2.33;;;;;;;12.50;100.00;102381.91;5291906;28;20047;-72
2022/10/06 03:19:27;;;;;;;;;;;;;;;13.07;100.00;102395.47;5285163;28;20017;-73
2022/10/06 03:21:58;;;;;;;9.57;2.30;;;;;;;12.52;100.00;102394.03;5287034;28;19912;-71
2022/10/06 03:24:29;;;;;;;10.32;2.55;;;;;;;12.46;100.00;102394.44;5286670;28;20447;-76
2022/10/06 03:27:00;;;;;;;8.05;1.90;;;;;;;12.40;100.00;102395.72;5278538;28;20486;-71
2022/10/06 03:29:33;;;;;;;8.32;1.90;;;;;;;12.38;100.00;102394.94;5287030;28;20040;-72
2022/10/06 03:32:05;;;;;;;9.52;2.45;;;;;;;12.37;100.00;102397.69;5288510;28;20551;-74
2022/10/06 03:34:36;;;;;;;11.18;2.25;;;;;;;12.32;100.00;102405.06;5294111;28;20028;-76
2022/10/06 03:37:07;;;;;;;8.18;2.08;;;;;;;12.30;100.00;102413.03;5291225;28;20031;-72
2022/10/06 03:39:39;;;;;;;11.50;2.00;;;;;;;12.27;100.00;102399.25;5287938;28;20081;-75
2022/10/06 03:42:10;;;;;;;12.45;2.38;;;;;;;12.25;100.00;102422.19;5288856;28;20022;-71
2022/10/06 03:44:41;;;;;;;13.43;2.58;;;;;;;12.23;100.00;102414.38;5289636;28;20036;-71
2022/10/06 03:47:12;;;;;;;7.45;1.95;;;;;;;12.19;100.00;102423.41;5287616;28;20031;-72
2022/10/06 03:49:44;;;;;;;7.78;1.83;;;;;;;12.16;100.00;102429.75;5292012;28;20491;-72
2022/10/06 03:52:15;;;;;;;9.48;2.47;;;;;;;12.12;100.00;102427.38;5288389;28;20499;-75
2022/10/06 03:54:46;;;;;;;10.32;3.13;;;;;;;12.10;100.00;102431.91;5288317;28;20492;-72
2022/10/06 03:57:18;;;;;;;10.25;2.47;;;;;;;12.09;100.00;102440.75;5289855;28;20370;-71
2022/10/06 03:59:49;;;;;;;8.55;2.53;;;;;;;12.08;100.00;102441.69;5291546;28;20020;-71
2022/10/06 04:02:20;;;;;;;11.82;2.50;;;;;;;12.05;100.00;102448.00;5287053;28;20015;-72
2022/10/06 04:04:51;;;;;;;11.40;2.45;;;;;;;12.03;100.00;102454.28;5286041;28;20115;-71
2022/10/06 04:07:23;;;;;;;12.23;2.17;;;;;;;11.98;100.00;102464.25;5289392;28;20024;-71
2022/10/06 04:09:54;;;;;;;9.55;2.58;;;;;;;11.97;100.00;102466.03;5291204;28;20020;-74
2022/10/06 04:12:25;;;;;;;8.80;2.47;;;;;;;11.87;100.00;102464.94;5290823;28;20039;-72
2022/10/06 04:14:56;;;;;;;13.05;3.03;;;;;;;11.87;100.00;102468.41;5293084;28;20020;-76
2022/10/06 04:17:28;;;;;;;11.68;2.30;;;;;;;11.84;100.00;102479.09;5290517;28;20064;-73
2022/10/06 04:19:59;;;;;;;14.57;2.63;;;;;;;11.86;100.00;102482.47;5290362;28;20020;-71
2022/10/06 04:22:30;;;;;;;12.27;2.42;;;;;;;11.79;100.00;102472.44;5282298;28;20042;-71
2022/10/06 04:25:02;;;;;;;10.18;2.58;;;;;;;11.80;100.00;102487.25;5283708;28;20032;-71
2022/10/06 04:27:33;;;;;;;14.27;2.70;;;;;;;11.78;100.00;102494.38;5282740;28;20036;-74
2022/10/06 04:30:05;;;;;;;12.13;2.55;;;;;;;11.74;100.00;102493.72;5288940;28;20051;-71
2022/10/06 04:32:36;;;;;;;11.25;2.90;;;;;;;11.68;100.00;102494.13;5278118;28;20485;-71
2022/10/06 04:35:07;;;;;;;13.45;3.20;;;;;;;11.72;100.00;102497.41;5285522;28;20111;-71
2022/10/06 04:37:39;;;;;;;14.70;2.65;;;;;;;11.67;100.00;102495.06;5292543;28;20091;-71
2022/10/06 04:40:11;;;;;;;9.07;2.28;;;;;;;11.63;100.00;102499.66;5286312;28;20424;-71
2022/10/06 04:42:42;;;;;;;12.45;2.88;;;;;;;11.59;100.00;102497.31;5287339;28;20374;-74
2022/10/06 04:45:13;;;;;;;9.10;2.72;;;;;;;11.58;100.00;102503.50;5289280;28;20112;-71
2022/10/06 04:47:47;;;;;;;11.20;2.28;;;;;;;11.60;100.00;102512.13;5287044;28;20032;-71
2022/10/06 04:50:18;;;;;;;11.38;2.42;;;;;;;11.56;100.00;102516.75;5293504;28;20534;-72
2022/10/06 04:52:51;;;;;;;10.32;2.60;;;;;;;11.54;100.00;102520.38;5284043;28;20036;-71
2022/10/06 04:55:23;;;;;;;;;;;;;;;12.12;100.00;102519.34;5298606;28;20131;-71
2022/10/06 04:57:54;;;;;;;10.33;3.00;;;;;;;11.52;100.00;102522.28;5285422;28;19995;-73
2022/10/06 05:00:25;;;;;;;14.40;3.55;;;;;;;11.51;100.00;102531.06;5283833;28;20611;-72
2022/10/06 05:02:56;;;;;;;12.27;2.60;;;;;;;11.44;100.00;102534.09;5288756;28;20500;-73
2022/10/06 05:05:28;;;;;;;11.55;3.45;;;;;;;11.41;100.00;102538.69;5287506;28;20028;-71
2022/10/06 05:07:59;;;;;;;7.90;2.50;;;;;;;11.39;100.00;102544.00;5288108;28;20042;-72
2022/10/06 05:10:30;;;;;;;9.43;3.13;;;;;;;11.36;100.00;102551.22;5276737;28;20028;-72
2022/10/06 05:13:02;;;;;;;12.18;2.58;;;;;;;11.38;100.00;102558.06;5287890;28;20040;-71
2022/10/06 05:15:34;;;;;;;10.68;2.83;;;;;;;11.32;100.00;102555.81;5289794;28;20056;-72
2022/10/06 05:18:05;;;;;;;11.52;2.60;;;;;;;11.30;100.00;102549.00;5291100;28;20051;-72
2022/10/06 05:20:36;;;;;;;13.90;2.80;;;;;;;11.29;100.00;102563.03;5283508;28;20044;-74
2022/10/06 05:23:07;;;;;;;14.85;3.45;;;;;;;11.25;100.00;102559.78;5281219;28;20071;-71
2022/10/06 05:25:39;;;;;;;16.17;3.28;;;;;;;11.30;100.00;102569.97;5290650;28;20042;-71
2022/10/06 05:28:10;;;;;;;15.68;3.13;;;;;;;11.26;100.00;102568.47;5287716;28;20046;-72
2022/10/06 05:30:41;;;;;;;12.43;2.90;;;;;;;11.25;100.00;102580.75;5282810;28;20039;-71
2022/10/06 05:33:12;;;;;;;12.95;3.60;;;;;;;11.19;100.00;102581.09;5286383;28;20047;-71
2022/10/06 05:35:57;;;;;;;11.85;2.72;;;;;;;11.34;100.00;102584.59;5285871;28;20024;-74
2022/10/06 05:38:29;;;;;;;14.73;2.80;;;;;;;11.17;100.00;102594.34;5287788;28;20120;-71
2022/10/06 05:41:07;;;;;;;11.63;2.67;;;;;;;11.23;100.00;102608.84;5281879;28;20107;-72
2022/10/06 05:43:39;;;;;;;16.23;3.92;;;;;;;11.12;100.00;102611.25;5284687;28;20039;-72
2022/10/06 05:46:16;;;;;;;14.35;2.95;;;;;;;11.12;100.00;102609.47;5283709;28;20024;-74
2022/10/06 05:48:49;;;;;;;14.20;3.13;;;;;;;11.10;100.00;102613.13;5288048;28;20031;-73
2022/10/06 05:51:24;;;;;;;10.15;2.53;;;;;;;11.07;100.00;102614.16;5285744;28;20032;-73
2022/10/06 05:53:55;;;;;;;15.07;2.85;;;;;;;11.04;100.00;102621.38;5281898;28;20401;-73
2022/10/06 05:56:32;;;;;;;13.20;3.22;;;;;;;11.12;100.00;102619.97;5288764;28;20028;-73
2022/10/06 05:59:04;;;;;;;15.60;3.72;;;;;;;11.02;100.00;102624.06;5283749;28;20027;-73
2022/10/06 06:01:41;;;;;;;14.70;3.67;;;;;;;11.02;100.00;102626.69;5285597;28;20020;-73
2022/10/06 06:04:12;;;;;;;10.93;2.78;;;;;;;10.95;100.00;102622.75;5289464;28;20427;-73
2022/10/06 06:06:46;;;;;;;18.45;3.67;;;;;;;11.01;100.00;102634.66;5284887;28;20028;-73
2022/10/06 06:09:19;;;;;;;14.25;3.17;;;;;;;11.04;100.00;102644.97;5285850;28;20510;-73
2022/10/06 06:11:54;;;;;;;12.52;2.97;;;;;;;10.97;100.00;102641.84;5277476;28;20031;-73
2022/10/06 06:17:15;;;;;;;19.48;3.65;;;;;;;10.99;100.00;102647.03;5282857;28;20048;-71
2022/10/06 06:19:46;;;;;;;9.63;2.90;;;;;;;10.99;100.00;102647.03;5283912;28;20496;-72
2022/10/06 06:22:17;;;;;;;16.42;3.13;;;;;;;11.00;100.00;102640.84;5285081;28;20021;-74
2022/10/06 06:24:49;;;;;;;14.35;3.08;;;;;;;11.01;100.00;102650.38;5287183;28;20119;-71
2022/10/06 06:27:20;;;;;;;12.80;3.35;;;;;;;10.96;100.00;102648.88;5286893;28;20023;-73
2022/10/06 06:29:52;;;;;;;17.95;3.25;;;;;;;10.99;100.00;102655.72;5288672;28;20028;-73
2022/10/06 06:32:23;;;;;;;13.88;3.13;;;;;;;10.99;100.00;102663.59;5291457;28;20029;-72
2022/10/06 06:34:55;;;;;;;17.52;4.65;;;;;;;11.00;100.00;102662.66;5284778;28;20040;-71
2022/10/06 06:37:30;;;;;;;17.67;3.67;;;;;;;11.01;100.00;102664.34;5286608;28;20069;-75
2022/10/06 06:40:01;;;;;;;15.57;3.28;;;;;;;11.01;100.00;102664.34;5279469;28;20024;-71
2022/10/06 06:42:33;;;;;;;12.50;3.60;;;;;;;11.02;100.00;102668.63;5288091;28;20058;-72
2022/10/06 06:45:04;;;;;;;10.48;2.58;;;;;;;11.05;100.00;102678.97;5284800;28;20111;-72
2022/10/06 06:47:36;;;;;;;15.38;3.85;;;;;;;11.07;100.00;102681.53;5290715;28;20065;-74
2022/10/06 06:50:09;;;;;;;15.77;3.75;;;;;;;11.11;100.00;102686.50;5282638;28;20026;-75
2022/10/06 06:52:42;;;;;;;16.15;3.25;;;;;;;11.11;100.00;102683.88;5285369;28;20036;-75
2022/10/06 06:55:13;;;;;;;;;;;;;;;11.71;100.00;102687.38;5292627;28;20030;-72
2022/10/06 06:57:45;;;;;;;15.60;3.60;;;;;;;11.27;100.00;102688.22;5280364;28;19916;-72
2022/10/06 07:00:16;;;;;;;17.35;3.55;;;;;;;11.24;100.00;102699.72;5283278;28;20034;-71
2022/10/06 07:02:54;;;;;;;17.83;3.67;;;;;;;11.26;100.00;102710.16;5290755;28;20424;-72
2022/10/06 07:05:26;;;;;;;15.85;3.15;;;;;;;11.25;100.00;102711.94;5285865;28;20056;-71
2022/10/06 07:07:57;;;;;;;14.50;3.58;;;;;;;11.30;100.00;102714.28;5292480;28;20449;-74
2022/10/06 07:10:34;;;;;;;15.68;3.90;;;;;;;11.32;100.00;102713.25;5288401;28;20028;-71
2022/10/06 07:13:06;;;;;;;13.75;3.58;;;;;;;11.33;100.00;102720.22;5290202;28;20059;-74
2022/10/06 07:26:57;;;;;;;17.38;3.67;;;;;;;11.57;100.00;102744.16;5289025;28;20036;-71
2022/10/06 07:29:29;;;;;;;16.00;3.47;;;;;;;11.61;100.00;102748.31;5288136;28;20477;-72
2022/10/06 07:32:00;;;;;;;12.88;3.70;;;;;;;11.68;100.00;102746.16;5287215;28;20431;-72
2022/10/06 07:34:31;;;;;;;18.27;3.47;;;;;;;11.73;100.00;102753.75;5290663;28;20417;-75
2022/10/06 07:37:03;;;;;;;12.95;3.13;;;;;;;11.77;100.00;102764.00;5293352;28;20028;-73
2022/10/06 07:39:34;;;;;;;15.30;3.60;;;;;;;11.83;100.00;102771.56;5293102;28;20032;-75
2022/10/06 07:42:13;;;;;;;17.70;3.85;;;;;;;11.96;100.00;102768.19;5283467;28;20041;-72
2022/10/06 07:47:37;;;;;;;20.60;4.05;;;;;;;12.01;100.00;102774.00;5290486;28;20028;-72
2022/10/06 07:50:11;;;;;;;18.25;3.60;;;;;;;12.14;100.00;102785.47;5285530;28;20029;-76
2022/10/06 07:52:42;;;;;;;15.70;3.67;;;;;;;12.15;100.00;102787.16;5284163;28;20024;-76
2022/10/06 07:55:16;;;;;;;12.57;2.72;;;;;;;12.23;100.00;102786.69;5292841;28;20469;-72
2022/10/06 07:57:49;;;;;;;15.18;3.42;;;;;;;12.31;100.00;102785.31;5294598;28;20059;-76
2022/10/06 08:00:21;;;;;;;16.17;4.03;;;;;;;12.38;100.00;102791.00;5289957;28;20086;-73
2022/10/06 08:02:54;;;;;;;16.50;2.97;;;;;;;12.45;100.00;102794.13;5288227;28;20129;-72
2022/10/06 08:05:26;;;;;;;20.45;3.90;;;;;;;12.48;100.00;102786.88;5291562;28;20432;-72
2022/10/06 08:07:57;;;;;;;18.65;3.85;;;;;;;12.54;100.00;102794.41;5287228;28;20020;-71
2022/10/06 08:10:28;;;;;;;13.98;3.22;;;;;;;12.59;100.00;102797.56;5286434;28;20043;-73
2022/10/06 08:13:04;;;;;;;15.15;3.70;;;;;;;12.70;100.00;102799.53;5287378;28;20480;-72
2022/10/06 08:15:35;;;;;;;15.30;3.75;;;;;;;12.71;100.00;102798.59;5290882;28;20078;-75
2022/10/06 08:18:07;;;;;;;12.55;3.10;;;;;;;12.77;100.00;102805.28;5293304;28;20468;-76
2022/10/06 08:20:39;;;;;;;14.13;3.35;;;;;;;12.83;100.00;102816.22;5287195;28;20054;-74
2022/10/06 08:23:11;;;;;;;18.23;3.17;;;;;;;12.95;100.00;102817.25;5288410;28;20497;-73
2022/10/06 08:25:53;;;;;;;16.33;3.58;;;;;;;13.10;100.00;102821.53;5285922;28;20028;-76
2022/10/06 08:28:24;;;;;;;13.90;3.80;;;;;;;13.11;100.00;102830.28;5286111;28;20126;-72
2022/10/06 08:30:55;;;;;;;13.40;2.47;;;;;;;13.22;100.00;102830.44;5288663;28;20453;-72
2022/10/06 08:33:27;;;;;;;15.20;3.53;;;;;;;13.34;100.00;102834.09;5287076;28;20021;-74
2022/10/06 08:36:07;;;;;;;16.02;3.53;;;;;;;13.49;100.00;102835.75;5282977;28;20565;-72
2022/10/06 08:38:39;;;;;;;15.40;3.15;;;;;;;13.51;100.00;102830.34;5285987;28;20028;-72
2022/10/06 08:41:49;;;;;;;12.15;2.67;;;;;;;13.99;100.00;102841.22;5282474;28;20029;-74
2022/10/06 08:44:34;;;;;;;13.90;3.47;;;;;;;13.83;100.00;102838.78;5254742;28;20036;-72
2022/10/06 08:47:27;;;;;;;13.02;3.03;;;;;;;14.20;100.00;102846.81;5283686;28;20031;-72
2022/10/06 08:49:59;;;;;;;;;;;;;;;14.54;100.00;102845.34;5283110;28;20032;-75
2022/10/06 08:53:14;;;;;;;15.35;3.15;;;;;;;14.39;100.00;102841.13;5288447;28;19981;-72
2022/10/06 08:55:56;;;;;;;16.13;3.35;;;;;;;14.39;100.00;102849.03;5276837;28;20711;-75
2022/10/06 08:58:54;;;;;;;13.13;2.97;;;;;;;14.60;100.00;102852.84;5286954;28;20081;-72
2022/10/06 09:01:46;;;;;;;14.35;3.35;;;;;;;14.73;100.00;102858.09;5284840;28;20023;-72
2022/10/06 09:04:28;;;;;;;16.20;3.33;;;;;;;14.59;100.00;102864.38;5279399;28;20043;-77
2022/10/06 09:07:02;;;;;;;12.35;3.15;;;;;;;14.74;100.00;102865.94;5289453;28;20044;-76
2022/10/06 09:10:04;;;;;;;14.77;3.13;;;;;;;14.99;100.00;102874.75;5284218;28;20028;-72
2022/10/06 09:12:40;;;;;;;11.25;2.92;;;;;;;15.05;100.00;102883.06;5285183;28;20024;-72
2022/10/06 09:15:14;;;;;;;12.48;2.50;;;;;;;15.08;100.00;102880.22;5286924;28;20035;-72
2022/10/06 09:17:54;;;;;;;9.98;2.45;;;;;;;15.14;100.00;102878.91;5284627;28;20042;-74
2022/10/06 09:20:33;;;;;;;12.18;2.35;;;;;;;15.26;100.00;102890.38;5287339;28;20021;-73
2022/10/06 09:23:13;;;;;;;14.63;3.10;;;;;;;15.35;100.00;102892.38;5285420;28;20050;-73
2022/10/06 09:25:44;;;;;;;10.95;2.45;;;;;;;15.21;100.00;102903.09;5285500;28;20624;-72
2022/10/06 09:28:16;;;;;;;12.85;3.17;;;;;;;15.26;100.00;102893.88;5281739;28;20164;-72
2022/10/06 09:30:47;;;;;;;11.23;2.50;;;;;;;15.29;100.00;102891.00;5288442;28;20035;-73
2022/10/06 09:33:20;;;;;;;14.63;2.80;;;;;;;15.39;100.00;102896.50;5282363;28;20028;-72
2022/10/06 09:36:08;;;;;;;17.20;3.20;;;;;;;15.61;100.00;102902.81;5281494;28;20024;-73
2022/10/06 09:38:51;;;;;;;14.50;3.30;;;;;;;15.68;100.00;102904.09;5286478;28;20461;-72
2022/10/06 09:41:27;;;;;;;12.10;3.30;;;;;;;15.70;100.00;102891.63;5287027;28;20019;-74
2022/10/06 09:44:22;;;;;;;13.18;2.78;;;;;;;15.93;100.00;102917.19;5291364;28;20476;-72
2022/10/06 09:46:53;;;;;;;10.10;2.60;;;;;;;15.88;100.00;102913.22;5289474;28;20048;-73
2022/10/06 09:49:26;;;;;;;15.82;2.97;;;;;;;15.98;100.00;102915.03;5286480;28;20114;-73
2022/10/06 09:52:13;;;;;;;8.45;2.83;;;;;;;16.30;100.00;102909.13;5287656;28;20028;-74
2022/10/06 09:54:45;;;;;;;10.70;2.53;;;;;;;16.23;100.00;102914.03;5283490;28;20031;-72
2022/10/06 09:57:25;;;;;;;10.90;2.40;;;;;;;16.35;100.00;102909.59;5284497;28;20469;-75
2022/10/06 09:59:58;;;;;;;16.25;3.53;;;;;;;16.25;100.00;102914.78;5286693;28;20035;-72
2022/10/06 10:02:38;;;;;;;10.68;2.95;;;;;;;16.50;100.00;102916.38;5288373;28;20020;-72
2022/10/06 10:05:21;;;;;;;11.93;2.47;;;;;;;16.61;100.00;102912.91;5284601;28;20028;-74
2022/10/06 10:08:17;;;;;;;12.02;2.63;;;;;;;16.68;100.00;102910.63;5283639;28;20258;-72
2022/10/06 10:10:50;;;;;;;11.85;2.85;;;;;;;16.67;100.00;102906.28;5287874;28;20594;-72
2022/10/06 10:13:24;;;;;;;11.07;2.33;;;;;;;16.76;100.00;102910.88;5285796;28;20527;-73
2022/10/06 10:16:01;;;;;;;11.38;2.53;;;;;;;16.84;100.00;102918.22;5288890;28;20048;-73
2022/10/06 10:18:34;;;;;;;12.82;2.42;;;;;;;16.85;100.00;102907.50;5283521;28;20374;-72
2022/10/06 10:21:07;;;;;;;9.50;2.22;;;;;;;16.94;100.00;102912.09;5288000;28;20057;-74
2022/10/06 10:23:54;;;;;;;;;;;;;;;17.60;100.00;102906.78;5291856;28;20028;-75
2022/10/06 10:27:03;;;;;;;6.88;2.20;;;;;;;17.37;100.00;102919.25;5278127;28;20077;-74
2022/10/06 10:29:51;;;;;;;11.40;2.15;;;;;;;17.39;100.00;102912.03;5282786;28;20077;-72
2022/10/06 10:32:52;;;;;;;8.70;2.72;;;;;;;17.56;100.00;102901.84;5285912;28;20017;-73
2022/10/06 10:35:30;;;;;;;7.05;1.85;;;;;;;17.34;100.00;102918.66;5288787;28;20028;-75
2022/10/06 10:38:21;;;;;;;11.63;2.03;;;;;;;17.41;100.00;102909.25;5285512;28;20016;-74
2022/10/06 10:41:05;;;;;;;9.98;1.65;;;;;;;17.52;100.00;102907.41;5283554;28;20488;-73
2022/10/06 10:43:50;;;;;;;8.90;1.77;;;;;;;17.56;100.00;102917.75;5282769;28;20478;-74
2022/10/06 10:46:36;;;;;;;5.28;1.63;;;;;;;17.68;100.00;102900.84;5289555;28;20295;-72
2022/10/06 10:49:19;;;;;;;8.13;1.88;;;;;;;17.57;100.00;102901.72;5287387;28;20031;-74
2022/10/06 10:52:12;;;;;;;7.40;2.03;;;;;;;17.66;100.00;102919.53;5288395;28;20489;-75
2022/10/06 10:55:17;;;;;;;8.05;1.70;;;;;;;17.95;100.00;102909.19;5289221;28;20461;-74
2022/10/06 10:57:50;;;;;;;8.32;2.28;;;;;;;17.80;100.00;102914.91;5286535;28;20043;-72
2022/10/06 11:00:27;;;;;;;8.02;2.00;;;;;;;17.92;100.00;102916.56;5278500;28;20119;-72
2022/10/06 11:03:00;;;;;;;10.43;2.80;;;;;;;17.87;100.00;102922.25;5285676;28;20468;-72
2022/10/06 11:05:41;;;;;;;8.60;1.98;;;;;;;17.92;100.00;102924.53;5281426;28;20033;-73
2022/10/06 11:08:38;;;;;;;11.35;2.55;;;;;;;18.18;100.00;102920.53;5280209;28;20036;-73
2022/10/06 11:11:17;;;;;;;9.43;2.90;;;;;;;18.12;100.00;102921.03;5279160;28;20028;-76
2022/10/06 11:13:53;;;;;;;9.10;2.58;;;;;;;18.20;100.00;102921.22;5288695;28;20047;-73
2022/10/06 11:16:39;;;;;;;9.40;2.20;;;;;;;18.35;100.00;102926.22;5285753;28;20051;-73
2022/10/06 11:19:27;;;;;;;8.20;1.92;;;;;;;18.31;100.00;102927.44;5290318;28;20020;-75
2022/10/06 11:22:07;;;;;;;9.25;2.47;;;;;;;18.36;100.00;102919.94;5281640;28;20043;-73
2022/10/06 11:24:41;;;;;;;9.77;2.60;;;;;;;18.29;100.00;102924.06;5282486;28;20673;-73
2022/10/06 11:27:44;;;;;;;11.15;2.20;;;;;;;18.66;100.00;102924.44;5285509;28;20035;-73
2022/10/06 11:30:18;;;;;;;8.13;2.53;;;;;;;18.35;100.00;102920.91;5275625;28;20446;-73
2022/10/06 11:33:16;;;;;;;7.72;2.08;;;;;;;18.47;100.00;102927.81;5284196;28;20031;-73
2022/10/06 11:35:48;;;;;;;6.18;2.38;;;;;;;18.28;100.00;102919.75;5288711;28;20024;-73
2022/10/06 11:38:40;;;;;;;7.57;2.30;;;;;;;18.59;100.00;102916.13;5280633;28;20035;-73
2022/10/06 11:41:24;;;;;;;7.88;2.40;;;;;;;18.46;100.00;102919.03;5282562;28;20040;-73
2022/10/06 11:44:12;;;;;;;9.35;2.42;;;;;;;18.64;100.00;102918.44;5283598;28;20073;-72
2022/10/06 11:46:58;;;;;;;9.10;2.03;;;;;;;18.69;100.00;102919.69;5288052;28;20035;-73
2022/10/06 11:49:31;;;;;;;10.07;2.28;;;;;;;18.68;100.00;102925.97;5290494;28;20111;-74
2022/10/06 11:52:05;;;;;;;6.72;2.28;;;;;;;18.75;100.00;102922.81;5288364;28;20238;-72
2022/10/06 11:54:39;;;;;;;7.18;1.60;;;;;;;18.77;100.00;102910.25;5288476;28;20095;-72
2022/10/06 11:57:34;;;;;;;6.38;1.73;;;;;;;19.07;100.00;102907.56;5291185;28;20518;-73
2022/10/06 12:00:08;;;;;;;7.25;1.90;;;;;;;19.04;100.00;102912.31;5286203;28;20493;-76
2022/10/06 12:02:41;;;;;;;11.73;2.17;;;;;;;18.88;100.00;102900.38;5283602;28;20031;-77
2022/10/06 12:05:13;;;;;;;8.13;1.88;;;;;;;18.83;100.00;102913.22;5289673;28;20054;-73
2022/10/06 12:07:53;;;;;;;7.40;2.03;;;;;;;18.93;100.00;102910.59;5286124;28;20036;-73